Newark Liberty International Airport Newark US
ICAO: KEWR
IATA: EWR
Category: Large
Scheduled Services: Yes

Elevation: 18 ft
TransAlt. 18000 ft.

Airport Communications:
NEW YORK APP:127.6
ATIS:115.7
CLNC DEL:118.85
NEW YORK DEP:119.2
GND:121.8
TWR:118.3
UNICOM:122.95

KEWR Zoom In..

If Map Doesn't Load, Click Here

Runways:

(A) RW 04L length 11000 ft width 150 ft
ILS 110.75 / hdg 39

(B) RW 04R length 10000 ft width 150 ft
ILS 108.70 / hdg 39

(C) RW 11 length 6800 ft width 150 ft
ILS 109.15 / hdg 108

(D) RW 22L length 10000 ft width 150 ft
ILS 108.70 / hdg 219

(E) RW 22R length 11000 ft width 150 ft
ILS 110.75 / hdg 219

(F) RW 29 length 6800 ft width 150 ft
---- / hdg 288

Location; KEWR
Day. 24 / Time. 04.51 Zulu
* Altimeter: 30.30
* Temperature: 17° c. 62.6°f.
* Wind from: 020° Speed 06 kn.
Dewpoint: 13° c.
Visibility: 10 Statute Miles.
Clouds: Scattered 2800 ft.
Clouds: Broken 4500 ft.
Clouds: Broken 24000 ft.

KEWR 240451Z 02006KT 10SM SCT028 BKN045 BKN240 17/13 A3030 RMK AO2 SLP258 T01670133 401890144


Wind From 020°
Speed 06 kn.

 
 
jpsmedia.com for Web Design worldairports.se 2018   terms of use